createdAt,value
2022-10-29T00:00:36.430Z,6.53
2022-10-29T00:03:03.092Z,6.45
2022-10-29T00:05:29.648Z,6.72
2022-10-29T00:07:56.395Z,6.57
2022-10-29T00:10:23.214Z,6.40
2022-10-29T00:12:49.614Z,6.40
2022-10-29T00:15:16.206Z,6.13
2022-10-29T00:17:42.615Z,5.88
2022-10-29T00:20:09.539Z,6.70
2022-10-29T00:22:36.087Z,6.40
2022-10-29T00:25:02.522Z,5.63
2022-10-29T00:27:28.950Z,5.63
2022-10-29T00:29:55.698Z,7.20
2022-10-29T00:32:22.117Z,6.25
2022-10-29T00:34:48.492Z,6.30
2022-10-29T00:37:14.904Z,6.13
2022-10-29T00:39:41.316Z,6.53
2022-10-29T00:42:15.238Z,7.45
2022-10-29T00:44:42.079Z,7.55
2022-10-29T00:47:26.208Z,8.13
2022-10-29T00:50:01.037Z,6.80
2022-10-29T00:52:30.844Z,8.93
2022-10-29T00:55:00.126Z,6.03
2022-10-29T00:57:33.544Z,6.78
2022-10-29T01:00:00.052Z,7.35
2022-10-29T01:02:27.369Z,6.40
2022-10-29T01:04:54.001Z,6.53
2022-10-29T01:07:22.290Z,7.45
2022-10-29T01:09:49.956Z,6.70
2022-10-29T01:12:53.899Z,7.05
2022-10-29T01:18:21.190Z,6.80
2022-10-29T01:21:09.309Z,6.70
2022-10-29T01:24:16.230Z,6.10
2022-10-29T01:26:48.801Z,6.65
2022-10-29T01:29:24.708Z,6.18
2022-10-29T01:32:05.035Z,6.38
2022-10-29T01:34:56.419Z,6.10
2022-10-29T01:37:54.466Z,7.15
2022-10-29T01:40:32.115Z,6.88
2022-10-29T01:45:55.806Z,6.63
2022-10-29T01:48:33.245Z,6.43
2022-10-29T01:51:04.845Z,6.30
2022-10-29T01:53:34.677Z,6.75
2022-10-29T01:56:01.062Z,6.85
2022-10-29T01:58:27.843Z,6.30
2022-10-29T02:01:09.360Z,6.95
2022-10-29T02:03:49.135Z,7.70
2022-10-29T02:06:42.159Z,7.80
2022-10-29T02:09:19.915Z,6.77
2022-10-29T02:11:59.420Z,6.80
2022-10-29T02:14:50.318Z,8.25
2022-10-29T02:17:17.210Z,6.90
2022-10-29T02:19:43.819Z,6.85
2022-10-29T02:22:10.247Z,7.53
2022-10-29T02:24:36.651Z,7.63
2022-10-29T02:27:03.092Z,6.55
2022-10-29T02:29:29.526Z,6.90
2022-10-29T02:31:55.930Z,6.70
2022-10-29T02:34:22.350Z,7.30
2022-10-29T02:36:48.773Z,7.85
2022-10-29T02:39:15.174Z,7.40
2022-10-29T02:41:41.602Z,8.07
2022-10-29T02:44:08.011Z,9.05
2022-10-29T02:46:39.638Z,7.72
2022-10-29T02:49:07.268Z,6.75
2022-10-29T02:51:34.011Z,7.00
2022-10-29T02:54:00.421Z,7.90
2022-10-29T02:56:26.857Z,6.47
2022-10-29T02:58:53.231Z,6.10
2022-10-29T03:01:19.831Z,6.65
2022-10-29T03:03:46.360Z,7.35
2022-10-29T03:06:14.941Z,6.35
2022-10-29T03:08:41.506Z,6.85
2022-10-29T03:11:08.384Z,6.13
2022-10-29T03:13:34.817Z,6.90
2022-10-29T03:16:01.351Z,6.38
2022-10-29T03:18:27.837Z,7.00
2022-10-29T03:20:54.304Z,7.70
2022-10-29T03:23:20.770Z,6.53
2022-10-29T03:25:55.543Z,7.65
2022-10-29T03:28:24.031Z,6.68
2022-10-29T03:30:50.605Z,6.78
2022-10-29T03:33:17.012Z,6.53
2022-10-29T03:35:43.561Z,6.85
2022-10-29T03:38:10.122Z,6.40
2022-10-29T03:40:36.524Z,6.88
2022-10-29T03:43:03.047Z,6.28
2022-10-29T03:45:29.499Z,6.47
2022-10-29T03:47:57.571Z,6.25
2022-10-29T03:50:24.320Z,7.03
2022-10-29T03:52:50.744Z,6.65
2022-10-29T03:55:17.250Z,6.32
2022-10-29T03:57:43.742Z,7.13
2022-10-29T04:00:10.523Z,6.53
2022-10-29T04:02:37.083Z,6.82
2022-10-29T04:05:03.775Z,6.07
2022-10-29T04:07:30.159Z,5.70
2022-10-29T04:09:56.563Z,6.10
2022-10-29T04:12:22.947Z,6.95
2022-10-29T04:17:20.721Z,6.80
2022-10-29T04:19:47.165Z,6.97
2022-10-29T04:28:41.818Z,8.25
2022-10-29T04:30:32.935Z,7.75
2022-10-29T04:33:00.406Z,6.47
2022-10-29T04:35:28.611Z,6.88
2022-10-29T04:37:55.473Z,7.20
2022-10-29T04:40:24.423Z,7.05
2022-10-29T04:42:51.002Z,7.78
2022-10-29T04:45:17.998Z,7.53
2022-10-29T04:47:44.795Z,7.38
2022-10-29T04:50:11.209Z,7.10
2022-10-29T04:52:37.626Z,8.13
2022-10-29T04:55:04.389Z,7.18
2022-10-29T04:57:30.843Z,8.50
2022-10-29T04:59:57.256Z,6.25
2022-10-29T05:02:23.738Z,8.20
2022-10-29T05:04:50.131Z,8.55
2022-10-29T05:07:16.535Z,7.35
2022-10-29T05:09:42.930Z,7.32
2022-10-29T05:12:09.338Z,7.78
2022-10-29T05:14:35.745Z,8.23
2022-10-29T05:17:02.225Z,7.35
2022-10-29T05:19:28.697Z,7.68
2022-10-29T05:21:55.128Z,6.90
2022-10-29T05:24:21.592Z,6.78
2022-10-29T05:26:48.035Z,6.32
2022-10-29T05:29:14.414Z,7.55
2022-10-29T05:31:40.819Z,6.68
2022-10-29T05:34:07.258Z,6.55
2022-10-29T05:36:33.650Z,5.80
2022-10-29T05:39:00.075Z,6.13
2022-10-29T05:41:26.492Z,6.95
2022-10-29T05:43:52.917Z,6.72
2022-10-29T05:46:19.852Z,7.25
2022-10-29T05:48:46.409Z,7.10
2022-10-29T05:51:12.826Z,7.63
2022-10-29T05:53:39.307Z,7.22
2022-10-29T05:56:06.227Z,7.22
2022-10-29T05:58:32.650Z,6.50
2022-10-29T06:00:59.051Z,6.53
2022-10-29T06:03:25.538Z,6.38
2022-10-29T06:05:52.009Z,6.20
2022-10-29T06:08:18.753Z,6.45
2022-10-29T06:10:45.178Z,6.28
2022-10-29T06:13:13.243Z,6.30
2022-10-29T06:15:39.968Z,6.32
2022-10-29T06:18:06.739Z,6.32
2022-10-29T06:20:33.190Z,6.85
2022-10-29T06:22:59.951Z,6.45
2022-10-29T06:25:27.368Z,7.43
2022-10-29T06:28:05.176Z,6.05
2022-10-29T06:30:33.957Z,7.90
2022-10-29T06:33:00.899Z,6.60
2022-10-29T06:35:27.670Z,6.13
2022-10-29T06:37:54.783Z,6.75
2022-10-29T06:40:21.706Z,6.63
2022-10-29T06:42:48.150Z,6.38
2022-10-29T06:45:14.959Z,6.80
2022-10-29T06:47:42.788Z,8.40
2022-10-29T06:50:10.905Z,7.00
2022-10-29T06:52:37.756Z,7.00
2022-10-29T06:55:05.903Z,7.20
2022-10-29T06:57:32.622Z,7.60
2022-10-29T07:00:02.403Z,6.75
2022-10-29T07:02:32.359Z,6.35
2022-10-29T07:04:58.758Z,6.53
2022-10-29T07:07:28.319Z,5.85
2022-10-29T07:09:54.750Z,8.48
2022-10-29T07:12:21.145Z,7.47
2022-10-29T07:14:47.542Z,6.30
2022-10-29T07:17:13.955Z,7.80
2022-10-29T07:19:40.433Z,6.28
2022-10-29T07:22:06.839Z,6.75
2022-10-29T07:24:33.250Z,8.30
2022-10-29T07:26:59.776Z,5.63
2022-10-29T07:29:26.187Z,6.68
2022-10-29T07:31:52.610Z,6.50
2022-10-29T07:34:19.034Z,6.18
2022-10-29T07:36:45.427Z,6.05
2022-10-29T07:39:11.823Z,6.88
2022-10-29T07:41:38.224Z,5.93
2022-10-29T07:44:04.664Z,5.40
2022-10-29T07:46:31.062Z,5.32
2022-10-29T07:48:57.522Z,5.90
2022-10-29T07:51:23.902Z,5.90
2022-10-29T07:53:50.302Z,5.53
2022-10-29T07:56:16.699Z,5.22
2022-10-29T07:58:43.086Z,5.68
2022-10-29T08:01:09.576Z,5.70
2022-10-29T08:03:36.344Z,6.30
2022-10-29T08:06:02.771Z,5.13
2022-10-29T08:08:29.274Z,4.53
2022-10-29T08:11:00.171Z,5.32
2022-10-29T08:13:26.718Z,5.60
2022-10-29T08:15:53.312Z,5.60
2022-10-29T08:18:19.815Z,5.63
2022-10-29T08:20:46.650Z,5.40
2022-10-29T08:23:14.218Z,6.05
2022-10-29T08:25:42.667Z,7.30
2022-10-29T08:28:12.183Z,7.72
2022-10-29T08:30:39.251Z,8.25
2022-10-29T08:33:05.853Z,8.23
2022-10-29T08:35:33.314Z,8.32
2022-10-29T08:37:59.944Z,8.48
2022-10-29T08:40:58.996Z,7.38
2022-10-29T08:43:31.211Z,5.68
2022-10-29T08:45:57.785Z,5.50
2022-10-29T08:48:39.877Z,5.45
2022-10-29T08:51:18.510Z,7.07
2022-10-29T08:53:58.738Z,7.07
2022-10-29T08:56:36.885Z,7.47
2022-10-29T08:59:13.318Z,8.10
2022-10-29T09:01:39.929Z,5.57
2022-10-29T09:04:27.991Z,6.00
2022-10-29T09:07:34.371Z,6.22
2022-10-29T09:10:19.109Z,5.18
2022-10-29T09:13:04.806Z,6.00
2022-10-29T09:15:57.779Z,7.15
2022-10-29T09:18:47.782Z,7.55
2022-10-29T09:21:32.150Z,6.47
2022-10-29T09:24:15.352Z,5.55
2022-10-29T09:29:32.845Z,5.05
2022-10-29T09:32:11.363Z,4.97
2022-10-29T09:34:46.007Z,5.00
2022-10-29T09:37:23.711Z,5.18
2022-10-29T09:39:50.111Z,5.15
2022-10-29T09:42:44.552Z,4.65
2022-10-29T09:45:18.486Z,5.07
2022-10-29T09:48:08.172Z,4.82
2022-10-29T09:50:52.708Z,4.78
2022-10-29T09:53:19.261Z,4.78
2022-10-29T09:55:53.618Z,4.60
2022-10-29T09:58:24.908Z,5.05
2022-10-29T10:00:53.039Z,4.30
2022-10-29T10:03:30.246Z,4.32
2022-10-29T10:06:10.986Z,5.25
2022-10-29T10:09:06.575Z,4.53
2022-10-29T10:11:39.729Z,4.03
2022-10-29T10:14:27.440Z,3.67
2022-10-29T10:17:01.391Z,4.10
2022-10-29T10:19:30.795Z,3.47
2022-10-29T10:22:02.988Z,3.50
2022-10-29T10:24:29.531Z,3.60
2022-10-29T10:26:55.950Z,3.70
2022-10-29T10:29:24.577Z,3.80
2022-10-29T10:32:13.595Z,3.60
2022-10-29T10:34:40.114Z,4.07
2022-10-29T10:37:09.224Z,4.13
2022-10-29T10:39:37.230Z,3.63
2022-10-29T10:42:06.877Z,3.00
2022-10-29T10:44:33.893Z,4.03
2022-10-29T10:47:06.892Z,3.83
2022-10-29T10:49:38.655Z,3.33
2022-10-29T10:52:18.488Z,3.08
2022-10-29T10:54:55.238Z,3.30
2022-10-29T10:57:25.805Z,3.75
2022-10-29T11:00:18.623Z,3.63
2022-10-29T11:03:08.762Z,3.05
2022-10-29T11:05:43.119Z,3.65
2022-10-29T11:08:18.871Z,3.45
2022-10-29T11:10:53.457Z,2.72
2022-10-29T11:13:27.081Z,3.25
2022-10-29T11:16:12.072Z,3.63
2022-10-29T11:18:48.382Z,3.63
2022-10-29T11:21:35.159Z,4.32
2022-10-29T11:24:02.071Z,3.30
2022-10-29T11:26:37.481Z,4.13
2022-10-29T11:29:09.920Z,3.10
2022-10-29T11:32:14.369Z,2.90
2022-10-29T11:35:04.203Z,3.50
2022-10-29T11:38:07.893Z,3.78
2022-10-29T11:40:44.786Z,3.45
2022-10-29T11:43:12.621Z,3.58
2022-10-29T11:45:50.025Z,3.85
2022-10-29T11:48:30.967Z,3.10
2022-10-29T11:51:18.599Z,3.58
2022-10-29T11:54:09.955Z,3.70
2022-10-29T11:56:53.215Z,3.35
2022-10-29T11:59:34.378Z,3.35
2022-10-29T12:02:37.943Z,3.67
2022-10-29T12:05:21.005Z,2.83
2022-10-29T12:08:05.950Z,3.80
2022-10-29T12:10:50.685Z,3.83
2022-10-29T12:13:30.732Z,3.40
2022-10-29T12:16:00.159Z,3.20
2022-10-29T12:18:44.830Z,3.75
2022-10-29T12:21:19.930Z,3.53
2022-10-29T12:24:20.726Z,3.47
2022-10-29T12:27:14.463Z,3.15
2022-10-29T12:29:56.876Z,3.60
2022-10-29T12:32:35.588Z,3.28
2022-10-29T12:35:20.311Z,3.70
2022-10-29T12:38:14.551Z,3.20
2022-10-29T12:40:44.726Z,3.25
2022-10-29T12:43:19.496Z,3.17
2022-10-29T12:49:03.462Z,3.08
2022-10-29T12:52:02.532Z,3.80
2022-10-29T12:54:43.219Z,3.05
2022-10-29T12:57:12.569Z,3.08
2022-10-29T12:59:40.476Z,3.15
2022-10-29T13:02:36.420Z,3.25
2022-10-29T13:05:05.724Z,3.45
2022-10-29T13:07:33.299Z,3.78
2022-10-29T13:10:25.138Z,3.13
2022-10-29T13:13:16.483Z,3.72
2022-10-29T13:16:02.523Z,3.85
2022-10-29T13:18:46.089Z,3.33
2022-10-29T13:21:12.572Z,3.65
2022-10-29T13:23:39.076Z,3.50
2022-10-29T13:26:07.952Z,3.55
2022-10-29T13:28:37.131Z,3.88
2022-10-29T13:31:03.479Z,3.97
2022-10-29T13:33:29.858Z,3.10
2022-10-29T13:36:26.803Z,3.05
2022-10-29T13:39:05.279Z,4.00
2022-10-29T13:41:42.741Z,2.88
2022-10-29T13:44:12.668Z,3.60
2022-10-29T13:47:02.532Z,3.50
2022-10-29T13:49:44.964Z,3.33
2022-10-29T13:52:16.340Z,3.70
2022-10-29T13:54:46.813Z,3.60
2022-10-29T13:57:19.244Z,4.07
2022-10-29T13:59:53.946Z,3.58
2022-10-29T14:02:33.509Z,4.13
2022-10-29T14:05:15.714Z,4.45
2022-10-29T14:07:51.427Z,3.07
2022-10-29T14:10:23.690Z,3.83
2022-10-29T14:12:55.749Z,3.65
2022-10-29T14:15:22.602Z,3.80
2022-10-29T14:17:49.073Z,3.38
2022-10-29T14:20:27.328Z,3.10
2022-10-29T14:22:54.880Z,2.70
2022-10-29T14:25:24.714Z,3.50
2022-10-29T14:28:10.186Z,3.45
2022-10-29T14:30:36.936Z,4.25
2022-10-29T14:33:27.445Z,3.22
2022-10-29T14:36:19.390Z,3.03
2022-10-29T14:38:48.843Z,3.67
2022-10-29T14:41:16.511Z,3.72
2022-10-29T14:43:44.538Z,3.83
2022-10-29T14:46:23.842Z,3.92
2022-10-29T14:48:59.523Z,3.67
2022-10-29T14:51:27.114Z,3.60
2022-10-29T14:54:01.740Z,3.58
2022-10-29T14:56:35.505Z,3.50
2022-10-29T14:59:07.511Z,4.07
2022-10-29T15:01:34.196Z,4.10
2022-10-29T15:04:01.889Z,3.95
2022-10-29T15:06:30.042Z,3.67
2022-10-29T15:08:59.740Z,3.78
2022-10-29T15:11:39.658Z,3.63
2022-10-29T15:14:24.211Z,3.53
2022-10-29T15:16:50.852Z,3.85
2022-10-29T15:19:18.059Z,3.33
2022-10-29T15:21:45.069Z,4.35
2022-10-29T15:24:20.910Z,3.60
2022-10-29T15:26:54.506Z,3.47
2022-10-29T15:29:30.595Z,4.00
2022-10-29T15:32:00.031Z,4.10
2022-10-29T15:34:32.522Z,3.95
2022-10-29T15:37:19.265Z,4.07
2022-10-29T15:40:10.278Z,4.00
2022-10-29T15:42:37.168Z,3.92
2022-10-29T15:47:41.043Z,4.10
2022-10-29T15:50:11.901Z,4.20
2022-10-29T15:52:42.086Z,4.15
2022-10-29T15:55:27.074Z,4.13
2022-10-29T15:57:59.519Z,4.63
2022-10-29T16:00:26.248Z,4.68
2022-10-29T16:02:55.564Z,4.35
2022-10-29T16:05:22.201Z,3.90
2022-10-29T16:07:48.682Z,3.78
2022-10-29T16:10:21.105Z,4.38
2022-10-29T16:12:49.544Z,4.70
2022-10-29T16:15:19.364Z,4.50
2022-10-29T16:17:46.482Z,4.25
2022-10-29T16:20:15.624Z,3.97
2022-10-29T16:22:42.061Z,3.75
2022-10-29T16:25:38.114Z,4.35
2022-10-29T16:28:04.654Z,4.20
2022-10-29T16:30:31.602Z,4.90
2022-10-29T16:32:58.244Z,4.32
2022-10-29T16:35:27.166Z,3.90
2022-10-29T16:37:56.021Z,3.60
2022-10-29T16:40:26.078Z,4.53
2022-10-29T16:42:55.047Z,4.57
2022-10-29T16:45:24.943Z,4.35
2022-10-29T16:47:52.314Z,4.18
2022-10-29T16:50:24.107Z,4.18
2022-10-29T16:53:08.780Z,4.85
2022-10-29T16:55:37.701Z,4.60
2022-10-29T16:58:06.785Z,4.35
2022-10-29T17:00:36.326Z,4.75
2022-10-29T17:03:06.752Z,4.55
2022-10-29T17:05:39.072Z,4.88
2022-10-29T17:08:06.163Z,4.22
2022-10-29T17:10:32.708Z,4.18
2022-10-29T17:13:00.001Z,5.60
2022-10-29T17:15:26.928Z,5.47
2022-10-29T17:17:53.428Z,4.63
2022-10-29T17:20:20.211Z,4.80
2022-10-29T17:22:46.732Z,4.35
2022-10-29T17:25:13.162Z,4.05
2022-10-29T17:27:43.234Z,4.85
2022-10-29T17:30:10.690Z,4.75
2022-10-29T17:32:37.181Z,4.72
2022-10-29T17:35:04.152Z,4.63
2022-10-29T17:37:30.694Z,4.90
2022-10-29T17:40:00.322Z,4.43
2022-10-29T17:42:30.528Z,4.50
2022-10-29T17:44:56.939Z,5.90
2022-10-29T17:47:23.343Z,5.07
2022-10-29T17:49:49.767Z,5.72
2022-10-29T17:52:17.420Z,4.70
2022-10-29T17:54:43.828Z,5.13
2022-10-29T17:57:10.218Z,5.78
2022-10-29T17:59:36.634Z,5.80
2022-10-29T18:02:03.168Z,6.35
2022-10-29T18:04:29.685Z,5.15
2022-10-29T18:06:56.162Z,5.18
2022-10-29T18:09:22.635Z,5.18
2022-10-29T18:11:50.412Z,5.72
2022-10-29T18:14:16.954Z,6.28
2022-10-29T18:16:43.433Z,5.68
2022-10-29T18:19:09.847Z,5.30
2022-10-29T18:21:36.323Z,4.32
2022-10-29T18:24:02.787Z,5.05
2022-10-29T18:26:33.975Z,5.25
2022-10-29T18:29:02.551Z,5.00
2022-10-29T18:31:30.900Z,4.50
2022-10-29T18:33:58.755Z,4.60
2022-10-29T18:36:25.451Z,5.57
2022-10-29T18:38:53.828Z,5.15
2022-10-29T18:41:20.690Z,6.07
2022-10-29T18:43:47.540Z,5.13
2022-10-29T18:46:14.654Z,5.68
2022-10-29T18:48:45.794Z,5.45
2022-10-29T18:51:19.741Z,5.18
2022-10-29T18:53:46.485Z,5.43
2022-10-29T18:56:15.302Z,4.78
2022-10-29T18:58:42.204Z,5.38
2022-10-29T19:01:14.303Z,4.43
2022-10-29T19:03:41.819Z,5.13
2022-10-29T19:06:11.114Z,5.03
2022-10-29T19:08:39.635Z,5.43
2022-10-29T19:11:09.116Z,4.50
2022-10-29T19:13:35.951Z,4.75
2022-10-29T19:16:04.850Z,5.88
2022-10-29T19:18:32.132Z,5.47
2022-10-29T19:21:06.515Z,6.05
2022-10-29T19:23:33.606Z,6.07
2022-10-29T19:26:08.516Z,5.35
2022-10-29T19:28:35.675Z,4.82
2022-10-29T19:31:07.782Z,5.93
2022-10-29T19:33:34.707Z,5.32
2022-10-29T19:36:01.743Z,5.60
2022-10-29T19:38:28.569Z,5.97
2022-10-29T19:40:58.281Z,5.30
2022-10-29T19:43:25.409Z,5.15
2022-10-29T19:45:52.483Z,5.13
2022-10-29T19:48:19.185Z,4.53
2022-10-29T19:50:46.174Z,4.72
2022-10-29T19:53:12.827Z,4.88
2022-10-29T19:55:40.658Z,5.03
2022-10-29T19:58:07.467Z,5.07
2022-10-29T20:00:33.897Z,4.70
2022-10-29T20:03:00.632Z,4.53
2022-10-29T20:05:27.292Z,4.85
2022-10-29T20:07:53.770Z,5.22
2022-10-29T20:10:20.166Z,5.13
2022-10-29T20:12:46.582Z,4.80
2022-10-29T20:15:13.135Z,4.93
2022-10-29T20:17:39.560Z,4.60
2022-10-29T20:20:06.696Z,5.05
2022-10-29T20:22:33.239Z,5.15
2022-10-29T20:24:59.702Z,5.07
2022-10-29T20:27:26.107Z,5.05
2022-10-29T20:29:52.566Z,4.35
2022-10-29T20:32:18.980Z,5.55
2022-10-29T20:34:45.362Z,5.15
2022-10-29T20:37:11.899Z,4.75
2022-10-29T20:39:38.307Z,5.90
2022-10-29T20:42:04.797Z,5.78
2022-10-29T20:44:31.311Z,5.95
2022-10-29T20:46:57.789Z,5.00
2022-10-29T20:49:24.240Z,5.70
2022-10-29T20:51:50.643Z,5.60
2022-10-29T20:54:17.056Z,6.05
2022-10-29T20:56:43.532Z,5.47
2022-10-29T20:59:09.950Z,5.38
2022-10-29T21:01:36.465Z,5.70
2022-10-29T21:04:03.138Z,5.75
2022-10-29T21:06:29.883Z,7.65
2022-10-29T21:08:56.495Z,5.45
2022-10-29T21:11:23.732Z,6.57
2022-10-29T21:13:50.667Z,5.95
2022-10-29T21:16:26.434Z,6.90
2022-10-29T21:19:00.733Z,5.97
2022-10-29T21:21:28.555Z,6.03
2022-10-29T21:23:56.795Z,6.63
2022-10-29T21:26:25.716Z,7.25
2022-10-29T21:28:53.305Z,6.88
2022-10-29T21:31:22.597Z,6.20
2022-10-29T21:33:50.955Z,6.47
2022-10-29T21:36:18.081Z,6.50
2022-10-29T21:38:44.533Z,6.40
2022-10-29T21:41:11.089Z,6.47
2022-10-29T21:43:38.274Z,6.57
2022-10-29T21:46:04.896Z,6.53
2022-10-29T21:48:31.369Z,6.45
2022-10-29T21:51:04.752Z,6.50
2022-10-29T21:53:31.391Z,6.00
2022-10-29T21:55:59.516Z,5.78
2022-10-29T21:58:26.491Z,5.80
2022-10-29T22:01:02.520Z,6.68
2022-10-29T22:03:37.319Z,5.90
2022-10-29T22:06:09.747Z,6.93
2022-10-29T22:08:36.213Z,6.67
2022-10-29T22:11:03.528Z,7.15
2022-10-29T22:13:30.786Z,6.53
2022-10-29T22:15:58.297Z,7.28
2022-10-29T22:18:25.742Z,6.43
2022-10-29T22:21:03.696Z,6.60
2022-10-29T22:23:30.038Z,7.43
2022-10-29T22:25:56.495Z,7.22
2022-10-29T22:28:22.881Z,6.95
2022-10-29T22:30:49.215Z,6.90
2022-10-29T22:33:15.622Z,7.13
2022-10-29T22:35:41.964Z,7.22
2022-10-29T22:38:08.366Z,7.45
2022-10-29T22:40:40.539Z,7.10
2022-10-29T22:43:07.046Z,7.03
2022-10-29T22:45:33.465Z,7.85
2022-10-29T22:47:59.850Z,7.15
2022-10-29T22:50:26.266Z,7.28
2022-10-29T22:52:52.654Z,6.45
2022-10-29T22:55:19.358Z,5.88
2022-10-29T22:57:45.775Z,6.15
2022-10-29T23:00:12.779Z,5.90
2022-10-29T23:02:39.214Z,5.13
2022-10-29T23:05:06.054Z,5.80
2022-10-29T23:10:04.058Z,5.63
2022-10-29T23:12:30.504Z,5.68
2022-10-29T23:14:56.899Z,6.45
2022-10-29T23:17:23.323Z,6.22
2022-10-29T23:19:49.719Z,6.40
2022-10-29T23:22:16.167Z,7.82
2022-10-29T23:24:42.622Z,7.88
2022-10-29T23:27:09.036Z,8.55
2022-10-29T23:29:35.441Z,8.75
2022-10-29T23:32:01.856Z,8.15
2022-10-29T23:34:28.269Z,10.05
2022-10-29T23:36:54.745Z,8.43
2022-10-29T23:39:21.142Z,8.07
2022-10-29T23:41:47.567Z,8.77
2022-10-29T23:44:13.973Z,8.50
2022-10-29T23:46:40.371Z,8.10
2022-10-29T23:49:06.843Z,6.90
2022-10-29T23:54:04.645Z,6.70
2022-10-29T23:56:31.066Z,7.05
2022-10-29T23:58:57.486Z,6.40
